createdAt,value
2018-08-20T00:00:36.061Z,21.80
2018-08-20T00:03:04.189Z,21.80
2018-08-20T00:05:33.333Z,21.80
2018-08-20T00:08:01.406Z,21.70
2018-08-20T00:10:29.577Z,21.70
2018-08-20T00:12:57.647Z,21.70
2018-08-20T00:15:25.723Z,21.60
2018-08-20T00:17:53.794Z,21.60
2018-08-20T00:20:21.849Z,21.60
2018-08-20T00:22:49.896Z,21.60
2018-08-20T00:25:19.266Z,21.60
2018-08-20T00:27:48.129Z,21.60
2018-08-20T00:30:17.273Z,21.50
2018-08-20T00:32:46.456Z,21.50
2018-08-20T00:35:15.868Z,21.60
2018-08-20T00:37:44.547Z,21.60
2018-08-20T00:40:12.585Z,21.60
2018-08-20T00:42:40.643Z,21.50
2018-08-20T00:45:08.705Z,21.50
2018-08-20T00:47:37.131Z,21.60
2018-08-20T00:50:05.368Z,21.50
2018-08-20T00:52:33.447Z,21.50
2018-08-20T00:57:46.289Z,21.50
2018-08-20T01:00:14.319Z,21.60
2018-08-20T01:02:42.535Z,21.50
2018-08-20T01:05:10.632Z,21.50
2018-08-20T01:07:38.693Z,21.50
2018-08-20T01:10:07.086Z,21.50
2018-08-20T01:12:35.144Z,21.40
2018-08-20T01:15:03.199Z,21.40
2018-08-20T01:17:31.302Z,21.30
2018-08-20T01:19:59.332Z,21.30
2018-08-20T01:22:27.366Z,21.30
2018-08-20T01:24:55.442Z,21.30
2018-08-20T01:27:26.642Z,21.30
2018-08-20T01:29:54.739Z,21.20
2018-08-20T01:32:22.770Z,21.20
2018-08-20T01:34:50.822Z,21.10
2018-08-20T01:37:19.763Z,21.10
2018-08-20T01:39:48.521Z,21.00
2018-08-20T01:42:17.241Z,21.00
2018-08-20T01:44:46.424Z,20.90
2018-08-20T01:47:14.506Z,20.90
2018-08-20T01:49:42.561Z,20.80
2018-08-20T01:52:10.639Z,20.90
2018-08-20T01:54:38.789Z,20.80
2018-08-20T01:57:07.279Z,20.70
2018-08-20T01:59:36.051Z,20.70
2018-08-20T02:02:04.118Z,20.70
2018-08-20T02:04:32.172Z,20.70
2018-08-20T02:07:00.234Z,20.70
2018-08-20T02:09:28.363Z,20.60
2018-08-20T02:11:56.411Z,20.60
2018-08-20T02:14:24.490Z,20.60
2018-08-20T02:16:52.621Z,20.60
2018-08-20T02:19:20.694Z,20.50
2018-08-20T02:21:49.134Z,20.50
2018-08-20T02:24:17.179Z,20.50
2018-08-20T02:26:45.234Z,20.40
2018-08-20T02:29:13.321Z,20.50
2018-08-20T02:31:41.366Z,20.40
2018-08-20T02:34:09.470Z,20.40
2018-08-20T02:36:37.989Z,20.40
2018-08-20T02:39:08.038Z,20.30
2018-08-20T02:41:36.074Z,20.30
2018-08-20T02:44:04.218Z,20.30
2018-08-20T02:46:38.154Z,20.20
2018-08-20T02:49:06.542Z,20.10
2018-08-20T02:51:34.588Z,20.10
2018-08-20T02:54:02.630Z,20.10
2018-08-20T02:56:30.687Z,20.00
2018-08-20T02:58:58.749Z,20.00
2018-08-20T03:01:26.945Z,19.90
2018-08-20T03:03:54.935Z,19.90
2018-08-20T03:06:23.021Z,19.90
2018-08-20T03:08:51.096Z,19.80
2018-08-20T03:11:19.169Z,19.80
2018-08-20T03:13:47.283Z,19.80
2018-08-20T03:16:15.377Z,19.80
2018-08-20T03:18:43.688Z,19.70
2018-08-20T03:21:11.913Z,19.70
2018-08-20T03:23:40.197Z,19.70
2018-08-20T03:26:08.256Z,19.60
2018-08-20T03:28:36.354Z,19.50
2018-08-20T03:31:04.570Z,19.50
2018-08-20T03:33:32.618Z,19.50
2018-08-20T03:36:00.838Z,19.40
2018-08-20T03:38:28.898Z,19.40
2018-08-20T03:40:56.945Z,19.30
2018-08-20T03:43:25.034Z,19.30
2018-08-20T03:45:53.127Z,19.30
2018-08-20T03:48:21.136Z,19.20
2018-08-20T03:50:49.237Z,19.20
2018-08-20T03:53:17.278Z,19.20
2018-08-20T03:55:45.401Z,19.30
2018-08-20T03:58:13.442Z,19.30
2018-08-20T04:00:41.554Z,19.20
2018-08-20T04:03:09.601Z,19.30
2018-08-20T04:05:37.679Z,19.30
2018-08-20T04:08:05.720Z,19.30
2018-08-20T04:10:33.849Z,19.30
2018-08-20T04:13:01.923Z,19.30
2018-08-20T04:15:29.965Z,19.30
2018-08-20T04:17:58.007Z,19.30
2018-08-20T04:20:26.060Z,19.40
2018-08-20T04:22:54.110Z,19.40
2018-08-20T04:25:22.162Z,19.50
2018-08-20T04:27:50.199Z,19.50
2018-08-20T04:30:18.326Z,19.60
2018-08-20T04:32:46.406Z,19.70
2018-08-20T04:35:14.453Z,19.70
2018-08-20T04:37:42.542Z,19.70
2018-08-20T04:40:10.603Z,19.80
2018-08-20T04:42:38.637Z,19.80
2018-08-20T04:45:07.375Z,19.90
2018-08-20T04:47:35.422Z,20.00
2018-08-20T04:50:04.092Z,20.00
2018-08-20T04:52:31.989Z,20.00
2018-08-20T04:55:00.038Z,20.00
2018-08-20T04:57:28.119Z,20.10
2018-08-20T04:59:56.465Z,20.20
2018-08-20T05:02:24.549Z,20.20
2018-08-20T05:04:52.599Z,20.20
2018-08-20T05:07:20.685Z,20.30
2018-08-20T05:09:48.747Z,20.30
2018-08-20T05:12:16.875Z,20.30
2018-08-20T05:14:45.478Z,20.40
2018-08-20T05:17:13.900Z,20.40
2018-08-20T05:19:42.300Z,20.50
2018-08-20T05:22:10.381Z,20.50
2018-08-20T05:24:38.462Z,20.60
2018-08-20T05:27:06.526Z,20.60
2018-08-20T05:29:34.579Z,20.70
2018-08-20T05:32:02.657Z,20.70
2018-08-20T05:34:31.002Z,20.70
2018-08-20T05:36:59.070Z,20.80
2018-08-20T05:39:27.189Z,20.80
2018-08-20T05:41:55.249Z,20.80
2018-08-20T05:44:23.366Z,20.90
2018-08-20T05:46:52.300Z,21.00
2018-08-20T05:49:22.015Z,21.10
2018-08-20T05:51:50.120Z,21.20
2018-08-20T05:54:18.173Z,21.30
2018-08-20T05:56:46.979Z,21.40
2018-08-20T05:59:15.804Z,21.30
2018-08-20T06:01:44.215Z,21.40
2018-08-20T06:04:12.851Z,21.60
2018-08-20T06:06:40.999Z,21.70
2018-08-20T06:09:10.435Z,21.80
2018-08-20T06:11:38.590Z,22.00
2018-08-20T06:14:06.631Z,22.10
2018-08-20T06:16:35.070Z,22.20
2018-08-20T06:19:03.312Z,22.20
2018-08-20T06:21:32.057Z,22.30
2018-08-20T06:24:00.082Z,22.40
2018-08-20T06:26:28.177Z,22.40
2018-08-20T06:28:56.524Z,22.40
2018-08-20T06:31:24.714Z,22.40
2018-08-20T06:33:52.934Z,22.40
2018-08-20T06:36:21.010Z,22.50
2018-08-20T06:38:49.155Z,22.60
2018-08-20T06:41:17.170Z,22.50
2018-08-20T06:43:45.220Z,22.70
2018-08-20T06:46:13.258Z,22.70
2018-08-20T06:48:41.432Z,22.80
2018-08-20T06:51:09.487Z,23.00
2018-08-20T06:53:37.534Z,22.80
2018-08-20T06:56:05.633Z,22.70
2018-08-20T06:58:33.682Z,22.60
2018-08-20T07:01:01.775Z,22.60
2018-08-20T07:03:29.897Z,22.60
2018-08-20T07:05:57.917Z,22.60
2018-08-20T07:08:25.998Z,22.80
2018-08-20T07:10:54.066Z,22.90
2018-08-20T07:13:23.587Z,22.90
2018-08-20T07:15:51.613Z,23.00
2018-08-20T07:18:19.802Z,22.90
2018-08-20T07:20:47.838Z,22.90
2018-08-20T07:23:16.013Z,22.90
2018-08-20T07:25:44.022Z,22.90
2018-08-20T07:28:12.136Z,23.00
2018-08-20T07:30:40.144Z,23.00
2018-08-20T07:33:08.227Z,23.00
2018-08-20T07:35:36.354Z,23.10
2018-08-20T07:38:04.378Z,23.10
2018-08-20T07:40:32.654Z,23.10
2018-08-20T07:43:00.940Z,23.10
2018-08-20T07:45:29.070Z,23.20
2018-08-20T07:47:57.120Z,23.10
2018-08-20T07:50:25.157Z,23.20
2018-08-20T07:52:53.213Z,23.30
2018-08-20T07:55:21.344Z,23.40
2018-08-20T07:57:49.395Z,23.40
2018-08-20T08:00:17.434Z,23.30
2018-08-20T08:02:45.657Z,23.40
2018-08-20T08:05:13.697Z,23.50
2018-08-20T08:07:42.938Z,23.60
2018-08-20T08:10:12.101Z,23.40
2018-08-20T08:12:40.388Z,23.40
2018-08-20T08:15:09.574Z,23.60
2018-08-20T08:17:37.660Z,23.70
2018-08-20T08:20:06.575Z,23.70
2018-08-20T08:22:34.675Z,23.80
2018-08-20T08:25:03.188Z,23.80
2018-08-20T08:27:31.649Z,23.80
2018-08-20T08:30:00.058Z,23.90
2018-08-20T08:32:28.134Z,24.00
2018-08-20T08:34:56.207Z,24.00
2018-08-20T08:37:24.259Z,23.90
2018-08-20T08:39:52.381Z,23.80
2018-08-20T08:42:20.613Z,23.50
2018-08-20T08:44:48.730Z,23.40
2018-08-20T08:47:16.778Z,23.50
2018-08-20T08:49:45.053Z,23.40
2018-08-20T08:52:13.508Z,23.40
2018-08-20T08:54:41.542Z,23.30
2018-08-20T08:57:09.688Z,23.30
2018-08-20T08:59:37.755Z,23.40
2018-08-20T09:02:05.824Z,23.30
2018-08-20T09:04:33.902Z,23.30
2018-08-20T09:07:01.985Z,23.40
2018-08-20T09:09:30.422Z,23.40
2018-08-20T09:11:58.526Z,23.60
2018-08-20T09:14:26.607Z,23.90
2018-08-20T09:16:55.250Z,24.20
2018-08-20T09:19:23.323Z,24.40
2018-08-20T09:21:51.360Z,24.60
2018-08-20T09:24:19.501Z,24.80
2018-08-20T09:26:47.548Z,24.70
2018-08-20T09:29:15.641Z,24.80
2018-08-20T09:31:43.690Z,24.90
2018-08-20T09:34:11.822Z,24.80
2018-08-20T09:36:39.850Z,24.60
2018-08-20T09:39:07.943Z,24.60
2018-08-20T09:41:36.038Z,24.50
2018-08-20T09:44:04.077Z,24.60
2018-08-20T09:46:32.372Z,24.50
2018-08-20T09:49:00.439Z,24.40
2018-08-20T09:51:28.469Z,24.40
2018-08-20T09:53:56.531Z,24.40
2018-08-20T09:56:24.675Z,24.40
2018-08-20T09:58:52.702Z,24.40
2018-08-20T10:01:20.759Z,24.20
2018-08-20T10:03:48.867Z,24.00
2018-08-20T10:06:16.930Z,23.80
2018-08-20T10:08:45.129Z,23.70
2018-08-20T10:11:13.621Z,23.60
2018-08-20T10:13:41.678Z,23.70
2018-08-20T10:16:10.073Z,23.80
2018-08-20T10:18:38.548Z,23.90
2018-08-20T10:21:06.731Z,23.80
2018-08-20T10:23:34.805Z,23.90
2018-08-20T10:26:02.842Z,23.90
2018-08-20T10:28:30.954Z,23.80
2018-08-20T10:30:59.028Z,23.90
2018-08-20T10:33:27.101Z,23.80
2018-08-20T10:35:55.257Z,24.00
2018-08-20T10:38:23.325Z,23.90
2018-08-20T10:40:58.025Z,24.00
2018-08-20T10:43:26.063Z,24.20
2018-08-20T10:45:59.672Z,24.40
2018-08-20T10:48:27.707Z,24.60
2018-08-20T10:50:55.757Z,24.80
2018-08-20T10:53:24.337Z,25.00
2018-08-20T10:55:52.522Z,25.40
2018-08-20T10:58:20.590Z,25.80
2018-08-20T11:00:48.659Z,25.80
2018-08-20T11:03:16.734Z,26.00
2018-08-20T11:05:44.786Z,25.80
2018-08-20T11:08:12.877Z,26.00
2018-08-20T11:10:40.937Z,26.10
2018-08-20T11:13:09.018Z,26.00
2018-08-20T11:15:37.082Z,25.70
2018-08-20T11:18:05.410Z,25.50
2018-08-20T11:20:33.572Z,25.30
2018-08-20T11:23:01.709Z,25.10
2018-08-20T11:25:29.795Z,24.90
2018-08-20T11:27:57.891Z,24.90
2018-08-20T11:30:25.958Z,24.80
2018-08-20T11:32:53.995Z,24.80
2018-08-20T11:35:22.067Z,24.80
2018-08-20T11:37:50.170Z,24.90
2018-08-20T11:40:18.210Z,25.00
2018-08-20T11:42:46.302Z,25.10
2018-08-20T11:45:14.914Z,25.20
2018-08-20T11:47:43.422Z,25.10
2018-08-20T11:50:11.564Z,24.90
2018-08-20T11:52:40.023Z,24.80
2018-08-20T11:55:08.209Z,24.60
2018-08-20T11:57:36.528Z,24.50
2018-08-20T12:00:05.906Z,24.20
2018-08-20T12:02:33.981Z,24.00
2018-08-20T12:05:02.034Z,23.90
2018-08-20T12:07:30.101Z,23.80
2018-08-20T12:09:58.165Z,23.70
2018-08-20T12:12:26.237Z,23.60
2018-08-20T12:14:54.318Z,23.60
2018-08-20T12:17:22.399Z,23.50
2018-08-20T12:19:50.463Z,23.50
2018-08-20T12:22:18.574Z,23.40
2018-08-20T12:24:46.571Z,23.40
2018-08-20T12:27:14.667Z,23.40
2018-08-20T12:29:42.737Z,23.40
2018-08-20T12:32:10.803Z,23.40
2018-08-20T12:34:38.861Z,23.40
2018-08-20T12:37:06.966Z,23.30
2018-08-20T12:39:35.009Z,23.40
2018-08-20T12:42:03.686Z,23.60
2018-08-20T12:44:31.744Z,23.70
2018-08-20T12:46:59.795Z,23.80
2018-08-20T12:49:27.842Z,23.90
2018-08-20T12:51:55.913Z,24.00
2018-08-20T12:54:23.962Z,24.00
2018-08-20T12:56:52.022Z,24.00
2018-08-20T12:59:20.090Z,24.00
2018-08-20T13:01:48.144Z,24.00
2018-08-20T13:04:16.211Z,24.00
2018-08-20T13:06:44.257Z,23.90
2018-08-20T13:09:12.311Z,24.00
2018-08-20T13:11:40.373Z,24.00
2018-08-20T13:14:08.458Z,24.10
2018-08-20T13:16:36.497Z,24.20
2018-08-20T13:19:04.616Z,24.30
2018-08-20T13:21:32.667Z,24.30
2018-08-20T13:24:00.738Z,24.30
2018-08-20T13:26:28.786Z,24.30
2018-08-20T13:28:56.905Z,24.30
2018-08-20T13:31:24.963Z,24.40
2018-08-20T13:33:53.066Z,24.40
2018-08-20T13:36:21.224Z,24.40
2018-08-20T13:38:49.523Z,24.40
2018-08-20T13:41:17.607Z,24.40
2018-08-20T13:43:45.676Z,24.40
2018-08-20T13:46:13.811Z,24.20
2018-08-20T13:48:41.888Z,24.20
2018-08-20T13:51:09.987Z,24.20
2018-08-20T13:53:38.083Z,24.10
2018-08-20T13:56:06.455Z,24.30
2018-08-20T13:58:34.513Z,24.50
2018-08-20T14:01:02.608Z,24.80
2018-08-20T14:03:30.799Z,25.10
2018-08-20T14:05:58.782Z,25.30
2018-08-20T14:08:26.983Z,25.40
2018-08-20T14:10:55.033Z,25.60
2018-08-20T14:13:23.090Z,25.90
2018-08-20T14:15:51.138Z,26.50
2018-08-20T14:18:19.202Z,26.50
2018-08-20T14:21:20.521Z,26.50
2018-08-20T14:23:49.437Z,26.70
2018-08-20T14:26:17.487Z,27.00
2018-08-20T14:28:45.580Z,27.40
2018-08-20T14:31:13.658Z,27.40
2018-08-20T14:33:41.724Z,27.20
2018-08-20T14:36:10.093Z,26.90
2018-08-20T14:38:38.156Z,26.80
2018-08-20T14:41:06.478Z,26.70
2018-08-20T14:43:34.642Z,26.70
2018-08-20T14:46:08.206Z,26.60
2018-08-20T14:48:36.258Z,26.40
2018-08-20T14:51:04.297Z,26.20
2018-08-20T14:53:32.564Z,25.80
2018-08-20T14:56:00.481Z,25.50
2018-08-20T14:58:28.594Z,25.20
2018-08-20T15:00:56.794Z,24.90
2018-08-20T15:03:24.860Z,24.80
2018-08-20T15:05:52.939Z,24.70
2018-08-20T15:08:21.006Z,24.60
2018-08-20T15:10:49.118Z,24.50
2018-08-20T15:13:17.262Z,24.40
2018-08-20T15:15:45.649Z,24.30
2018-08-20T15:18:13.608Z,24.20
2018-08-20T15:20:41.758Z,24.20
2018-08-20T15:23:09.904Z,24.30
2018-08-20T15:25:38.034Z,24.40
2018-08-20T15:28:06.074Z,24.50
2018-08-20T15:30:34.147Z,24.30
2018-08-20T15:33:02.191Z,24.40
2018-08-20T15:35:32.261Z,24.40
2018-08-20T15:38:00.317Z,24.20
2018-08-20T15:40:28.383Z,24.40
2018-08-20T15:42:56.465Z,24.60
2018-08-20T15:45:24.538Z,24.60
2018-08-20T15:47:52.581Z,24.50
2018-08-20T15:50:20.702Z,24.60
2018-08-20T15:52:48.731Z,24.40
2018-08-20T15:55:16.845Z,24.40
2018-08-20T15:57:44.869Z,24.40
2018-08-20T16:00:14.627Z,24.20
2018-08-20T16:02:42.914Z,24.00
2018-08-20T16:05:10.969Z,24.00
2018-08-20T16:07:39.049Z,23.80
2018-08-20T16:10:07.848Z,23.80
2018-08-20T16:12:36.046Z,23.90
2018-08-20T16:15:04.540Z,23.90
2018-08-20T16:17:32.637Z,23.80
2018-08-20T16:20:00.678Z,23.80
2018-08-20T16:22:28.830Z,23.70
2018-08-20T16:24:56.901Z,23.60
2018-08-20T16:27:25.139Z,23.50
2018-08-20T16:29:53.217Z,23.40
2018-08-20T16:32:21.278Z,23.40
2018-08-20T16:34:49.457Z,23.40
2018-08-20T16:37:17.739Z,23.40
2018-08-20T16:39:46.855Z,23.40
2018-08-20T16:42:14.858Z,23.40
2018-08-20T16:44:43.006Z,23.40
2018-08-20T16:47:11.049Z,23.50
2018-08-20T16:49:39.090Z,23.50
2018-08-20T16:52:07.178Z,23.50
2018-08-20T16:54:35.377Z,23.50
2018-08-20T16:57:03.574Z,23.50
2018-08-20T16:59:31.615Z,23.40
2018-08-20T17:01:59.686Z,23.40
2018-08-20T17:04:32.200Z,23.40
2018-08-20T17:07:01.095Z,23.40
2018-08-20T17:09:29.658Z,23.50
2018-08-20T17:11:57.926Z,23.50
2018-08-20T17:14:25.986Z,23.50
2018-08-20T17:16:54.190Z,23.40
2018-08-20T17:19:22.234Z,23.50
2018-08-20T17:21:50.309Z,23.40
2018-08-20T17:24:22.877Z,23.40
2018-08-20T17:26:50.937Z,23.30
2018-08-20T17:29:20.095Z,23.30
2018-08-20T17:31:48.250Z,23.20
2018-08-20T17:34:16.279Z,23.10
2018-08-20T17:36:44.450Z,23.00
2018-08-20T17:39:12.506Z,23.00
2018-08-20T17:41:40.646Z,22.90
2018-08-20T17:44:08.932Z,22.80
2018-08-20T17:46:37.015Z,22.90
2018-08-20T17:49:05.161Z,22.80
2018-08-20T17:51:33.242Z,22.80
2018-08-20T17:54:01.297Z,22.70
2018-08-20T17:56:29.326Z,22.70
2018-08-20T17:59:03.527Z,22.60
2018-08-20T18:01:33.880Z,22.60
2018-08-20T18:04:02.213Z,22.60
2018-08-20T18:06:43.312Z,22.40
2018-08-20T18:09:12.599Z,22.40
2018-08-20T18:11:46.262Z,22.40
2018-08-20T18:14:14.362Z,22.40
2018-08-20T18:16:42.445Z,22.40
2018-08-20T18:19:10.511Z,22.30
2018-08-20T18:21:38.819Z,22.40
2018-08-20T18:24:10.939Z,22.40
2018-08-20T18:26:43.805Z,22.40
2018-08-20T18:29:12.311Z,22.40
2018-08-20T18:31:40.567Z,22.30
2018-08-20T18:34:08.859Z,22.30
2018-08-20T18:36:36.930Z,22.30
2018-08-20T18:39:09.942Z,22.30
2018-08-20T18:41:54.370Z,22.30
2018-08-20T18:44:23.193Z,22.30
2018-08-20T18:46:51.603Z,22.30
2018-08-20T18:49:20.227Z,22.30
2018-08-20T18:51:59.419Z,22.30
2018-08-20T18:54:27.511Z,22.20
2018-08-20T18:57:02.981Z,22.20
2018-08-20T18:59:31.712Z,22.20
2018-08-20T19:01:59.969Z,22.30
2018-08-20T19:04:32.994Z,22.30
2018-08-20T19:07:05.537Z,22.30
2018-08-20T19:09:33.674Z,22.30
2018-08-20T19:12:01.771Z,22.20
2018-08-20T19:14:29.881Z,22.20
2018-08-20T19:16:57.968Z,22.30
2018-08-20T19:19:28.183Z,22.20
2018-08-20T19:21:56.281Z,22.30
2018-08-20T19:24:25.166Z,22.30
2018-08-20T19:26:55.563Z,22.20
2018-08-20T19:29:25.354Z,22.20
2018-08-20T19:31:53.568Z,22.30
2018-08-20T19:34:21.753Z,22.30
2018-08-20T19:36:50.032Z,22.30
2018-08-20T19:39:18.201Z,22.20
2018-08-20T19:41:46.260Z,22.20
2018-08-20T19:44:14.362Z,22.20
2018-08-20T19:46:42.443Z,22.20
2018-08-20T19:49:13.026Z,22.20
2018-08-20T19:51:42.101Z,22.20
2018-08-20T19:54:12.050Z,22.10
2018-08-20T19:56:40.222Z,22.10
2018-08-20T19:59:08.481Z,22.10
2018-08-20T20:01:36.671Z,22.10
2018-08-20T20:04:04.763Z,22.10
2018-08-20T20:06:32.811Z,22.10
2018-08-20T20:09:05.151Z,22.10
2018-08-20T20:11:33.238Z,22.10
2018-08-20T20:14:02.565Z,22.00
2018-08-20T20:16:39.322Z,22.10
2018-08-20T20:19:07.688Z,22.00
2018-08-20T20:21:35.784Z,22.00
2018-08-20T20:24:03.923Z,22.00
2018-08-20T20:26:32.958Z,22.00
2018-08-20T20:29:01.269Z,22.00
2018-08-20T20:31:29.328Z,22.00
2018-08-20T20:33:57.482Z,21.90
2018-08-20T20:36:26.690Z,21.90
2018-08-20T20:38:55.072Z,21.90
2018-08-20T20:41:23.422Z,21.90
2018-08-20T20:43:51.806Z,21.80
2018-08-20T20:46:19.878Z,21.80
2018-08-20T20:48:48.234Z,21.80
2018-08-20T20:51:16.342Z,21.70
2018-08-20T20:53:44.606Z,21.60
2018-08-20T20:56:12.826Z,21.60
2018-08-20T20:58:41.182Z,21.50
2018-08-20T21:01:11.737Z,21.50
2018-08-20T21:03:39.782Z,21.60
2018-08-20T21:06:08.099Z,21.60
2018-08-20T21:08:41.841Z,21.50
2018-08-20T21:11:10.545Z,21.60
2018-08-20T21:13:38.879Z,21.60
2018-08-20T21:16:07.938Z,21.60
2018-08-20T21:18:38.284Z,21.50
2018-08-20T21:21:06.646Z,21.50
2018-08-20T21:23:36.339Z,21.50
2018-08-20T21:26:04.526Z,21.50
2018-08-20T21:29:05.594Z,21.50
2018-08-20T21:32:04.894Z,21.50
2018-08-20T21:34:36.521Z,21.50
2018-08-20T21:37:04.529Z,21.50
2018-08-20T21:39:32.587Z,21.50
2018-08-20T21:42:00.631Z,21.50
2018-08-20T21:44:28.763Z,21.40
2018-08-20T21:46:56.811Z,21.40
2018-08-20T21:49:24.886Z,21.40
2018-08-20T21:51:58.293Z,21.40
2018-08-20T21:54:31.825Z,21.40
2018-08-20T21:57:00.591Z,21.30
2018-08-20T21:59:28.679Z,21.30
2018-08-20T22:01:56.832Z,21.30
2018-08-20T22:04:24.908Z,21.20
2018-08-20T22:06:52.935Z,21.10
2018-08-20T22:09:21.017Z,21.10
2018-08-20T22:11:49.054Z,21.10
2018-08-20T22:14:17.119Z,21.10
2018-08-20T22:16:45.234Z,21.00
2018-08-20T22:19:13.269Z,21.00
2018-08-20T22:21:41.378Z,21.10
2018-08-20T22:24:09.420Z,21.00
2018-08-20T22:26:39.132Z,21.10
2018-08-20T22:29:07.251Z,21.00
2018-08-20T22:31:35.981Z,21.00
2018-08-20T22:34:04.891Z,21.00
2018-08-20T22:36:33.238Z,21.00
2018-08-20T22:39:02.526Z,21.00
2018-08-20T22:41:31.519Z,21.00
2018-08-20T22:43:59.532Z,20.90
2018-08-20T22:46:27.660Z,20.80
2018-08-20T22:48:57.094Z,20.90
2018-08-20T22:51:26.134Z,20.90
2018-08-20T22:53:54.689Z,20.80
2018-08-20T22:56:23.505Z,20.80
2018-08-20T22:58:51.905Z,20.80
2018-08-20T23:01:20.163Z,20.70
2018-08-20T23:03:48.232Z,20.60
2018-08-20T23:06:16.314Z,20.60
2018-08-20T23:08:44.365Z,20.50
2018-08-20T23:11:12.454Z,20.50
2018-08-20T23:13:40.491Z,20.40
2018-08-20T23:16:08.583Z,20.40
2018-08-20T23:18:36.618Z,20.20
2018-08-20T23:21:04.746Z,20.20
2018-08-20T23:23:35.299Z,20.10
2018-08-20T23:26:06.474Z,20.00
2018-08-20T23:28:35.235Z,19.90
2018-08-20T23:31:03.386Z,19.90
2018-08-20T23:33:32.512Z,19.80
2018-08-20T23:36:00.737Z,19.80
2018-08-20T23:38:29.365Z,19.80
2018-08-20T23:40:58.062Z,19.80
2018-08-20T23:43:26.110Z,19.80
2018-08-20T23:45:54.261Z,19.80
2018-08-20T23:48:22.337Z,19.80
2018-08-20T23:50:56.590Z,19.80
2018-08-20T23:53:24.948Z,19.70
2018-08-20T23:55:53.115Z,19.70
2018-08-20T23:58:21.542Z,19.70
